2016 Cux-Wetter.de -Die Nutzung der Wetterdaten nur mit ausdrcklicher Genehmigung
Wetterdaten: Woche 20.06.16 - 26.06.16 (KW25)
Datum Zeit Temp. A. Feuchte A. Luftdruck Regen Wind Richtung Sonnenschein Solar Taupunkt Windchill Windben
20.06.2016 00:00 10,2 C 88 % 1021,5 hPa 0,0 l/m 0,4 km/h (0 Bft) N 0,00 h 0 W/m 8,2 C 10,2 C 2,2 km/h (1 Bft)
20.06.2016 01:00 10,1 C 89 % 1021,1 hPa 0,0 l/m 3,3 km/h (1 Bft) SO 0,00 h 0 W/m 8,3 C 10,1 C 6,8 km/h (2 Bft)
20.06.2016 02:00 10,1 C 89 % 1020,6 hPa 0,0 l/m 6,1 km/h (2 Bft) SO 0,00 h 0 W/m 8,3 C 10,0 C 11,8 km/h (2 Bft)
20.06.2016 03:00 9,8 C 90 % 1020,3 hPa 0,0 l/m 7,1 km/h (2 Bft) S-SO 0,00 h 0 W/m 8,3 C 9,3 C 13,1 km/h (3 Bft)
20.06.2016 04:00 9,7 C 91 % 1019,8 hPa 0,0 l/m 6,3 km/h (2 Bft) S-SO 0,00 h 0 W/m 8,3 C 9,5 C 12,4 km/h (2 Bft)
20.06.2016 05:00 10,1 C 90 % 1019,1 hPa 0,0 l/m 6,3 km/h (2 Bft) S-SO 0,00 h 11 W/m 8,5 C 9,9 C 12,1 km/h (2 Bft)
20.06.2016 06:00 11,1 C 88 % 1018,6 hPa 0,0 l/m 6,6 km/h (2 Bft) S-SO 0,00 h 20 W/m 9,1 C 10,8 C 12,8 km/h (3 Bft)
20.06.2016 07:00 13,1 C 84 % 1018,1 hPa 0,0 l/m 7,8 km/h (2 Bft) SO 0,00 h 25 W/m 10,4 C 12,3 C 14,3 km/h (3 Bft)
20.06.2016 08:00 15,7 C 74 % 1017,5 hPa 0,0 l/m 10,5 km/h (2 Bft) S 0,00 h 31 W/m 11,0 C 13,7 C 19,8 km/h (3 Bft)
20.06.2016 09:00 17,5 C 68 % 1017,0 hPa 0,0 l/m 12,1 km/h (2 Bft) S-SO 0,00 h 76 W/m 11,6 C 15,2 C 23,2 km/h (4 Bft)
20.06.2016 10:00 19,1 C 63 % 1016,3 hPa 0,0 l/m 14,0 km/h (3 Bft) S 0,15 h 174 W/m 11,9 C 16,5 C 24,9 km/h (4 Bft)
20.06.2016 11:00 19,9 C 60 % 1015,5 hPa 0,0 l/m 14,9 km/h (3 Bft) S 0,25 h 359 W/m 11,9 C 17,2 C 28,6 km/h (5 Bft)
20.06.2016 12:00 20,2 C 60 % 1015,1 hPa 0,0 l/m 14,9 km/h (3 Bft) S 0,00 h 309 W/m 12,2 C 17,5 C 26,7 km/h (4 Bft)
20.06.2016 13:00 19,5 C 61 % 1014,8 hPa 0,0 l/m 16,3 km/h (3 Bft) S 0,00 h 203 W/m 11,8 C 16,4 C 28,7 km/h (5 Bft)
20.06.2016 14:00 18,0 C 75 % 1014,6 hPa 0,0 l/m 13,3 km/h (3 Bft) S 0,00 h 227 W/m 13,5 C 15,4 C 23,2 km/h (4 Bft)
20.06.2016 15:00 17,6 C 79 % 1014,0 hPa 0,0 l/m 12,4 km/h (2 Bft) S 0,00 h 135 W/m 13,8 C 15,1 C 23,4 km/h (4 Bft)
20.06.2016 16:00 16,3 C 89 % 1013,5 hPa 1,2 l/m 11,0 km/h (2 Bft) S 0,00 h 74 W/m 14,5 C 14,1 C 21,5 km/h (4 Bft)
20.06.2016 17:00 15,8 C 92 % 1012,8 hPa 1,4 l/m 11,8 km/h (2 Bft) S 0,00 h 41 W/m 14,5 C 13,2 C 22,4 km/h (4 Bft)
20.06.2016 18:00 15,5 C 93 % 1012,1 hPa 1,8 l/m 10,9 km/h (2 Bft) S-SO 0,00 h 26 W/m 14,4 C 13,3 C 19,3 km/h (3 Bft)
20.06.2016 19:00 15,3 C 94 % 1011,8 hPa 2,2 l/m 9,6 km/h (2 Bft) S 0,00 h 17 W/m 14,3 C 13,6 C 17,9 km/h (3 Bft)
20.06.2016 20:00 15,1 C 95 % 1011,5 hPa 2,4 l/m 9,0 km/h (2 Bft) S-SO 0,00 h 9 W/m 14,2 C 13,7 C 17,1 km/h (3 Bft)
20.06.2016 21:00 15,1 C 96 % 1011,0 hPa 1,6 l/m 7,5 km/h (2 Bft) SO 0,00 h 7 W/m 14,4 C 14,4 C 14,7 km/h (3 Bft)
20.06.2016 22:00 15,1 C 96 % 1010,8 hPa 1,0 l/m 8,8 km/h (2 Bft) S 0,00 h 0 W/m 14,5 C 13,8 C 16,9 km/h (3 Bft)
20.06.2016 23:00 15,2 C 96 % 1010,5 hPa 0,4 l/m 7,4 km/h (2 Bft) S 0,00 h 0 W/m 14,6 C 14,6 C 14,7 km/h (3 Bft)
21.06.2016 00:00 15,3 C 96 % 1010,4 hPa 0,4 l/m 6,3 km/h (2 Bft) S 0,00 h 0 W/m 14,7 C 15,2 C 12,7 km/h (3 Bft)
21.06.2016 01:00 15,4 C 97 % 1010,5 hPa 0,4 l/m 8,0 km/h (2 Bft) SW 0,00 h 0 W/m 14,9 C 14,5 C 13,6 km/h (3 Bft)
21.06.2016 02:00 15,3 C 97 % 1010,8 hPa 0,0 l/m 10,6 km/h (2 Bft) W-SW 0,00 h 0 W/m 14,8 C 13,3 C 18,9 km/h (3 Bft)
21.06.2016 03:00 14,4 C 96 % 1011,7 hPa 0,0 l/m 10,8 km/h (2 Bft) W 0,00 h 0 W/m 13,8 C 12,2 C 21,1 km/h (4 Bft)
21.06.2016 04:00 14,3 C 96 % 1012,5 hPa 0,0 l/m 9,7 km/h (2 Bft) W-NW 0,00 h 0 W/m 13,7 C 12,5 C 19,0 km/h (3 Bft)
21.06.2016 05:00 14,5 C 95 % 1013,1 hPa 0,0 l/m 7,0 km/h (2 Bft) W 0,00 h 13 W/m 13,8 C 13,9 C 15,1 km/h (3 Bft)
21.06.2016 06:00 15,1 C 94 % 1013,5 hPa 0,0 l/m 5,4 km/h (2 Bft) W 0,00 h 37 W/m 14,2 C 15,0 C 11,1 km/h (2 Bft)
21.06.2016 07:00 15,4 C 92 % 1014,2 hPa 0,0 l/m 5,7 km/h (2 Bft) W 0,00 h 65 W/m 14,1 C 15,3 C 12,2 km/h (2 Bft)
21.06.2016 08:00 16,2 C 89 % 1014,9 hPa 0,0 l/m 6,0 km/h (2 Bft) W 0,00 h 113 W/m 14,4 C 16,1 C 12,3 km/h (2 Bft)
21.06.2016 09:00 17,0 C 86 % 1015,7 hPa 0,0 l/m 6,8 km/h (2 Bft) W 0,00 h 157 W/m 14,6 C 16,6 C 13,1 km/h (3 Bft)
21.06.2016 10:00 18,5 C 79 % 1016,0 hPa 0,0 l/m 5,9 km/h (2 Bft) W 0,00 h 171 W/m 14,8 C 18,3 C 12,4 km/h (2 Bft)
21.06.2016 11:00 19,3 C 75 % 1016,8 hPa 0,0 l/m 6,1 km/h (2 Bft) W 0,05 h 331 W/m 14,7 C 19,2 C 12,2 km/h (2 Bft)
21.06.2016 12:00 20,0 C 71 % 1017,3 hPa 0,0 l/m 6,3 km/h (2 Bft) W 0,10 h 385 W/m 14,6 C 19,8 C 12,4 km/h (2 Bft)
21.06.2016 13:00 20,5 C 70 % 1017,6 hPa 0,0 l/m 5,0 km/h (1 Bft) W 0,10 h 396 W/m 14,9 C 20,5 C 10,1 km/h (2 Bft)
21.06.2016 14:00 21,9 C 65 % 1018,0 hPa 0,0 l/m 5,1 km/h (1 Bft) W 0,70 h 667 W/m 15,0 C 21,9 C 10,7 km/h (2 Bft)
21.06.2016 15:00 23,0 C 63 % 1018,2 hPa 0,0 l/m 4,7 km/h (1 Bft) NW 1,00 h 785 W/m 15,5 C 23,0 C 9,8 km/h (2 Bft)
21.06.2016 16:00 23,1 C 63 % 1018,3 hPa 0,0 l/m 4,9 km/h (1 Bft) NW 1,00 h 698 W/m 15,5 C 23,1 C 10,3 km/h (2 Bft)
21.06.2016 17:00 21,9 C 67 % 1018,4 hPa 0,0 l/m 3,2 km/h (1 Bft) NW 1,00 h 552 W/m 15,5 C 21,9 C 6,6 km/h (2 Bft)
21.06.2016 18:00 21,5 C 67 % 1018,3 hPa 0,0 l/m 2,4 km/h (1 Bft) N-NW 1,00 h 411 W/m 15,0 C 21,5 C 4,8 km/h (1 Bft)
21.06.2016 19:00 20,7 C 70 % 1018,3 hPa 0,0 l/m 2,1 km/h (1 Bft) N-NO 0,90 h 254 W/m 15,0 C 20,7 C 4,6 km/h (1 Bft)
21.06.2016 20:00 19,1 C 75 % 1018,4 hPa 0,0 l/m 1,5 km/h (1 Bft) O 0,05 h 54 W/m 14,6 C 19,1 C 4,0 km/h (1 Bft)
21.06.2016 21:00 18,4 C 79 % 1018,5 hPa 0,0 l/m 0,9 km/h (0 Bft) NO 0,00 h 19 W/m 14,6 C 18,4 C 3,3 km/h (1 Bft)
21.06.2016 22:00 17,8 C 79 % 1018,6 hPa 0,0 l/m 1,3 km/h (1 Bft) O 0,00 h 0 W/m 14,1 C 17,8 C 3,9 km/h (1 Bft)
21.06.2016 23:00 17,9 C 79 % 1018,7 hPa 0,0 l/m 1,2 km/h (1 Bft) O-SO 0,00 h 0 W/m 14,1 C 17,9 C 3,8 km/h (1 Bft)
22.06.2016 00:00 17,6 C 80 % 1018,7 hPa 0,0 l/m 3,2 km/h (1 Bft) O-SO 0,00 h 0 W/m 14,1 C 17,6 C 6,8 km/h (2 Bft)
22.06.2016 01:00 17,4 C 83 % 1018,7 hPa 0,0 l/m 1,6 km/h (1 Bft) SO 0,00 h 0 W/m 14,5 C 17,4 C 3,9 km/h (1 Bft)
22.06.2016 02:00 17,3 C 88 % 1018,7 hPa 0,0 l/m 1,8 km/h (1 Bft) SO 0,00 h 0 W/m 15,3 C 17,3 C 4,1 km/h (1 Bft)
22.06.2016 03:00 17,3 C 91 % 1018,6 hPa 0,0 l/m 3,3 km/h (1 Bft) SO 0,00 h 0 W/m 15,7 C 17,3 C 6,2 km/h (2 Bft)
22.06.2016 04:00 17,6 C 91 % 1018,5 hPa 0,0 l/m 4,2 km/h (1 Bft) S-SO 0,00 h 0 W/m 16,1 C 17,6 C 8,7 km/h (2 Bft)
22.06.2016 05:00 17,7 C 92 % 1018,6 hPa 0,0 l/m 3,1 km/h (1 Bft) S 0,00 h 8 W/m 16,4 C 17,7 C 6,3 km/h (2 Bft)
22.06.2016 06:00 18,3 C 92 % 1018,9 hPa 0,0 l/m 6,1 km/h (2 Bft) SW 0,00 h 23 W/m 16,9 C 18,2 C 10,8 km/h (2 Bft)
22.06.2016 07:00 18,5 C 92 % 1019,3 hPa 0,0 l/m 8,6 km/h (2 Bft) SW 0,00 h 40 W/m 17,1 C 17,6 C 13,5 km/h (3 Bft)
22.06.2016 08:00 18,5 C 91 % 1019,7 hPa 0,0 l/m 7,9 km/h (2 Bft) SW 0,00 h 84 W/m 17,0 C 17,8 C 12,9 km/h (3 Bft)
22.06.2016 09:00 19,2 C 87 % 1020,2 hPa 0,0 l/m 10,0 km/h (2 Bft) S-SW 0,00 h 126 W/m 16,9 C 17,8 C 16,3 km/h (3 Bft)
22.06.2016 10:00 20,1 C 80 % 1020,4 hPa 0,0 l/m 10,6 km/h (2 Bft) SW 0,05 h 219 W/m 16,6 C 18,6 C 17,0 km/h (3 Bft)
22.06.2016 11:00 21,2 C 73 % 1020,6 hPa 0,0 l/m 12,8 km/h (3 Bft) SW 0,60 h 512 W/m 16,1 C 19,2 C 20,5 km/h (4 Bft)
22.06.2016 12:00 21,0 C 73 % 1021,0 hPa 0,0 l/m 12,4 km/h (2 Bft) SW 0,15 h 319 W/m 15,9 C 19,0 C 20,0 km/h (4 Bft)
22.06.2016 13:00 22,3 C 71 % 1021,1 hPa 0,0 l/m 11,0 km/h (2 Bft) S-SW 0,50 h 561 W/m 16,7 C 20,9 C 20,0 km/h (4 Bft)
22.06.2016 14:00 23,9 C 64 % 1021,2 hPa 0,0 l/m 10,8 km/h (2 Bft) W-SW 0,85 h 748 W/m 16,6 C 22,7 C 17,8 km/h (3 Bft)
22.06.2016 15:00 25,1 C 60 % 1021,4 hPa 0,0 l/m 10,0 km/h (2 Bft) S-SW 0,90 h 730 W/m 16,8 C 24,3 C 17,2 km/h (3 Bft)
22.06.2016 16:00 25,3 C 60 % 1021,6 hPa 0,0 l/m 9,4 km/h (2 Bft) N 1,00 h 654 W/m 17,0 C 24,6 C 16,7 km/h (3 Bft)
22.06.2016 17:00 24,0 C 65 % 1021,6 hPa 0,0 l/m 9,0 km/h (2 Bft) N-NW 1,00 h 526 W/m 17,0 C 23,3 C 15,4 km/h (3 Bft)
22.06.2016 18:00 23,0 C 69 % 1021,5 hPa 0,0 l/m 4,7 km/h (1 Bft) N-NW 1,00 h 390 W/m 17,0 C 23,0 C 9,5 km/h (2 Bft)
22.06.2016 19:00 22,0 C 73 % 1021,3 hPa 0,0 l/m 3,0 km/h (1 Bft) N-NW 1,00 h 245 W/m 16,9 C 22,0 C 6,3 km/h (2 Bft)
22.06.2016 20:00 21,1 C 77 % 1021,3 hPa 0,0 l/m 1,6 km/h (1 Bft) N-NW 0,30 h 68 W/m 16,9 C 21,1 C 4,5 km/h (1 Bft)
22.06.2016 21:00 20,1 C 82 % 1021,6 hPa 0,0 l/m 0,3 km/h (0 Bft) N-NW 0,00 h 12 W/m 16,8 C 20,1 C 1,5 km/h (1 Bft)
22.06.2016 22:00 18,9 C 86 % 1021,8 hPa 0,0 l/m 0,3 km/h (0 Bft) N-NW 0,00 h 0 W/m 16,5 C 18,9 C 1,3 km/h (1 Bft)
22.06.2016 23:00 18,7 C 88 % 1021,7 hPa 0,0 l/m 0,6 km/h (0 Bft) N-NO 0,00 h 0 W/m 16,6 C 18,7 C 2,5 km/h (1 Bft)
23.06.2016 00:00 18,7 C 89 % 1021,6 hPa 0,0 l/m 0,7 km/h (0 Bft) O 0,00 h 0 W/m 16,8 C 18,7 C 2,7 km/h (1 Bft)
23.06.2016 01:00 19,0 C 89 % 1021,5 hPa 0,0 l/m 1,0 km/h (0 Bft) O-SO 0,00 h 0 W/m 17,1 C 19,0 C 3,3 km/h (1 Bft)
23.06.2016 02:00 18,9 C 88 % 1021,5 hPa 0,0 l/m 1,8 km/h (1 Bft) SO 0,00 h 0 W/m 16,9 C 18,9 C 4,2 km/h (1 Bft)
23.06.2016 03:00 18,1 C 89 % 1021,1 hPa 0,0 l/m 3,0 km/h (1 Bft) SO 0,00 h 0 W/m 16,2 C 18,1 C 6,7 km/h (2 Bft)
23.06.2016 04:00 17,7 C 90 % 1020,6 hPa 0,0 l/m 2,7 km/h (1 Bft) O-SO 0,00 h 0 W/m 16,1 C 17,7 C 5,9 km/h (2 Bft)
23.06.2016 05:00 17,4 C 90 % 1020,0 hPa 0,0 l/m 3,8 km/h (1 Bft) SO 0,00 h 11 W/m 15,8 C 17,4 C 7,6 km/h (2 Bft)
23.06.2016 06:00 18,2 C 88 % 1020,0 hPa 0,0 l/m 4,0 km/h (1 Bft) SO 0,00 h 38 W/m 16,1 C 18,2 C 7,8 km/h (2 Bft)
23.06.2016 07:00 19,7 C 83 % 1019,5 hPa 0,0 l/m 3,8 km/h (1 Bft) SO 0,00 h 62 W/m 16,7 C 19,7 C 8,7 km/h (2 Bft)
23.06.2016 08:00 21,6 C 78 % 1019,5 hPa 0,0 l/m 4,7 km/h (1 Bft) S-SO 0,00 h 111 W/m 17,7 C 21,6 C 10,9 km/h (2 Bft)
23.06.2016 09:00 23,0 C 78 % 1019,0 hPa 0,0 l/m 4,1 km/h (1 Bft) O-SO 0,00 h 108 W/m 18,9 C 22,9 C 10,0 km/h (2 Bft)
23.06.2016 10:00 25,4 C 71 % 1018,6 hPa 0,0 l/m 5,5 km/h (2 Bft) O-SO 0,10 h 131 W/m 19,8 C 25,4 C 12,3 km/h (2 Bft)
23.06.2016 11:00 26,8 C 68 % 1018,0 hPa 0,0 l/m 6,5 km/h (2 Bft) S-SO 0,50 h 425 W/m 20,4 C 26,6 C 13,5 km/h (3 Bft)
23.06.2016 12:00 28,1 C 63 % 1017,4 hPa 0,0 l/m 8,2 km/h (2 Bft) S-SO 0,75 h 595 W/m 20,4 C 27,8 C 16,2 km/h (3 Bft)
23.06.2016 13:00 29,5 C 58 % 1016,8 hPa 0,0 l/m 8,3 km/h (2 Bft) SO 0,80 h 742 W/m 20,2 C 29,3 C 16,7 km/h (3 Bft)
23.06.2016 14:00 28,5 C 63 % 1016,5 hPa 0,0 l/m 4,5 km/h (1 Bft) S 0,00 h 222 W/m 20,8 C 28,5 C 9,5 km/h (2 Bft)
23.06.2016 15:00 27,4 C 66 % 1016,1 hPa 0,0 l/m 6,8 km/h (2 Bft) NW 0,00 h 225 W/m 20,4 C 27,2 C 12,4 km/h (2 Bft)
23.06.2016 16:00 25,7 C 72 % 1015,3 hPa 0,0 l/m 4,6 km/h (1 Bft) N-NW 0,00 h 179 W/m 20,2 C 25,7 C 9,2 km/h (2 Bft)
23.06.2016 17:00 25,9 C 72 % 1014,9 hPa 0,0 l/m 3,9 km/h (1 Bft) N 0,00 h 183 W/m 20,4 C 25,9 C 8,4 km/h (2 Bft)
23.06.2016 18:00 25,9 C 72 % 1014,7 hPa 0,0 l/m 4,4 km/h (1 Bft) NW 0,20 h 200 W/m 20,4 C 25,9 C 9,2 km/h (2 Bft)
23.06.2016 19:00 23,8 C 76 % 1014,6 hPa 0,0 l/m 6,7 km/h (2 Bft) N 0,00 h 69 W/m 19,4 C 23,6 C 13,9 km/h (3 Bft)
23.06.2016 20:00 21,8 C 88 % 1015,1 hPa 10,6 l/m 6,7 km/h (2 Bft) NW 0,30 h 88 W/m 19,8 C 21,4 C 13,5 km/h (3 Bft)
23.06.2016 21:00 21,6 C 92 % 1014,6 hPa 0,0 l/m 5,0 km/h (1 Bft) N-NW 0,10 h 28 W/m 20,2 C 21,6 C 10,6 km/h (2 Bft)
23.06.2016 22:00 21,3 C 92 % 1015,0 hPa 0,0 l/m 1,8 km/h (1 Bft) N-NO 0,05 h 15 W/m 20,0 C 21,3 C 5,0 km/h (1 Bft)
23.06.2016 23:00 21,0 C 93 % 1015,7 hPa 5,8 l/m 4,9 km/h (1 Bft) SW 0,00 h 0 W/m 19,8 C 20,3 C 14,8 km/h (3 Bft)
24.06.2016 00:00 20,0 C 95 % 1016,2 hPa 1,8 l/m 2,0 km/h (1 Bft) O-NO 0,00 h 0 W/m 19,1 C 20,0 C 6,0 km/h (2 Bft)
24.06.2016 01:00 19,8 C 95 % 1015,3 hPa 1,6 l/m 1,6 km/h (1 Bft) SO 0,00 h 0 W/m 18,9 C 19,8 C 5,6 km/h (2 Bft)
24.06.2016 02:00 19,5 C 96 % 1015,5 hPa 1,8 l/m 9,3 km/h (2 Bft) SO 0,00 h 0 W/m 18,8 C 18,2 C 18,1 km/h (3 Bft)
24.06.2016 03:00 19,8 C 96 % 1013,7 hPa 0,2 l/m 6,4 km/h (2 Bft) S 0,00 h 0 W/m 19,0 C 19,3 C 18,9 km/h (3 Bft)
24.06.2016 04:00 19,1 C 96 % 1013,4 hPa 0,0 l/m 2,4 km/h (1 Bft) O-SO 0,00 h 0 W/m 18,4 C 19,1 C 7,6 km/h (2 Bft)
24.06.2016 05:00 19,1 C 96 % 1013,9 hPa 0,0 l/m 6,4 km/h (2 Bft) S 0,00 h 10 W/m 18,4 C 18,7 C 14,5 km/h (3 Bft)
24.06.2016 06:00 19,7 C 94 % 1013,5 hPa 0,0 l/m 7,0 km/h (2 Bft) S 0,00 h 30 W/m 18,7 C 19,3 C 14,2 km/h (3 Bft)
24.06.2016 07:00 20,2 C 92 % 1013,8 hPa 0,0 l/m 9,2 km/h (2 Bft) SW 0,00 h 55 W/m 18,9 C 19,2 C 17,4 km/h (3 Bft)
24.06.2016 08:00 20,7 C 92 % 1014,5 hPa 0,0 l/m 8,8 km/h (2 Bft) S-SW 0,00 h 63 W/m 19,3 C 19,8 C 17,1 km/h (3 Bft)
24.06.2016 09:00 21,1 C 91 % 1015,3 hPa 0,0 l/m 10,2 km/h (2 Bft) S-SW 0,00 h 109 W/m 19,5 C 19,8 C 18,7 km/h (3 Bft)
24.06.2016 10:00 21,3 C 91 % 1015,4 hPa 0,0 l/m 11,2 km/h (2 Bft) SW 0,00 h 117 W/m 19,7 C 19,8 C 18,7 km/h (3 Bft)
24.06.2016 11:00 21,9 C 88 % 1015,7 hPa 0,0 l/m 8,8 km/h (2 Bft) SW 0,00 h 172 W/m 19,9 C 21,1 C 14,1 km/h (3 Bft)
24.06.2016 12:00 22,7 C 85 % 1015,9 hPa 0,0 l/m 7,6 km/h (2 Bft) SW 0,00 h 183 W/m 20,1 C 22,2 C 12,2 km/h (2 Bft)
24.06.2016 13:00 22,9 C 86 % 1015,8 hPa 0,0 l/m 5,3 km/h (1 Bft) SW 0,00 h 165 W/m 20,4 C 22,9 C 9,2 km/h (2 Bft)
24.06.2016 14:00 23,2 C 85 % 1016,1 hPa 0,0 l/m 6,4 km/h (2 Bft) SW 0,05 h 173 W/m 20,5 C 23,0 C 11,4 km/h (2 Bft)
24.06.2016 15:00 21,6 C 85 % 1016,4 hPa 0,0 l/m 7,7 km/h (2 Bft) W-NW 0,00 h 81 W/m 19,0 C 21,1 C 15,4 km/h (3 Bft)
24.06.2016 16:00 20,0 C 88 % 1016,5 hPa 0,0 l/m 5,8 km/h (2 Bft) W 0,00 h 41 W/m 17,9 C 19,9 C 12,8 km/h (3 Bft)
24.06.2016 17:00 19,2 C 92 % 1016,5 hPa 0,2 l/m 5,8 km/h (2 Bft) W-NW 0,00 h 93 W/m 17,8 C 19,1 C 12,7 km/h (3 Bft)
24.06.2016 18:00 19,0 C 91 % 1016,7 hPa 1,2 l/m 4,2 km/h (1 Bft) NW 0,00 h 32 W/m 17,6 C 19,0 C 8,9 km/h (2 Bft)
24.06.2016 19:00 18,8 C 91 % 1016,6 hPa 0,0 l/m 4,6 km/h (1 Bft) NW 0,00 h 54 W/m 17,4 C 18,8 C 10,4 km/h (2 Bft)
24.06.2016 20:00 18,5 C 91 % 1017,0 hPa 0,0 l/m 1,9 km/h (1 Bft) W 0,00 h 11 W/m 17,0 C 18,5 C 4,6 km/h (1 Bft)
24.06.2016 21:00 18,0 C 92 % 1016,6 hPa 0,0 l/m 5,2 km/h (1 Bft) NW 0,00 h 7 W/m 16,6 C 17,9 C 11,2 km/h (2 Bft)
24.06.2016 22:00 17,3 C 93 % 1016,7 hPa 0,0 l/m 6,1 km/h (2 Bft) NW 0,00 h 0 W/m 16,2 C 17,0 C 12,7 km/h (3 Bft)
24.06.2016 23:00 16,7 C 94 % 1016,8 hPa 0,0 l/m 7,8 km/h (2 Bft) NW 0,00 h 0 W/m 15,7 C 16,0 C 13,7 km/h (3 Bft)
25.06.2016 00:00 16,8 C 94 % 1016,7 hPa 0,0 l/m 5,0 km/h (1 Bft) N-NW 0,00 h 0 W/m 15,8 C 16,8 C 10,4 km/h (2 Bft)
25.06.2016 01:00 17,1 C 93 % 1016,6 hPa 0,0 l/m 1,4 km/h (1 Bft) NO 0,00 h 0 W/m 16,0 C 17,1 C 4,2 km/h (1 Bft)
25.06.2016 02:00 17,2 C 92 % 1016,6 hPa 0,0 l/m 2,6 km/h (1 Bft) NW 0,00 h 0 W/m 16,0 C 17,2 C 5,4 km/h (1 Bft)
25.06.2016 03:00 17,1 C 92 % 1016,1 hPa 0,0 l/m 3,6 km/h (1 Bft) NW 0,00 h 0 W/m 15,8 C 17,1 C 7,5 km/h (2 Bft)
25.06.2016 04:00 16,9 C 92 % 1015,6 hPa 0,0 l/m 4,2 km/h (1 Bft) N 0,00 h 0 W/m 15,6 C 16,9 C 8,8 km/h (2 Bft)
25.06.2016 05:00 16,9 C 91 % 1015,3 hPa 0,0 l/m 4,5 km/h (1 Bft) N-NW 0,00 h 15 W/m 15,4 C 16,9 C 10,1 km/h (2 Bft)
25.06.2016 06:00 17,1 C 89 % 1015,0 hPa 0,0 l/m 4,9 km/h (1 Bft) NW 0,00 h 31 W/m 15,3 C 17,1 C 11,8 km/h (2 Bft)
25.06.2016 07:00 17,5 C 88 % 1014,8 hPa 0,0 l/m 4,6 km/h (1 Bft) N-NW 0,00 h 46 W/m 15,5 C 17,5 C 9,9 km/h (2 Bft)
25.06.2016 08:00 17,9 C 87 % 1014,4 hPa 0,0 l/m 4,9 km/h (1 Bft) N-NW 0,00 h 72 W/m 15,8 C 17,9 C 10,1 km/h (2 Bft)
25.06.2016 09:00 17,7 C 88 % 1014,6 hPa 0,0 l/m 4,3 km/h (1 Bft) N-NW 0,00 h 56 W/m 15,7 C 17,7 C 9,7 km/h (2 Bft)
25.06.2016 10:00 17,2 C 90 % 1015,1 hPa 3,4 l/m 2,5 km/h (1 Bft) N-NW 0,00 h 22 W/m 15,5 C 17,2 C 6,3 km/h (2 Bft)
25.06.2016 11:00 16,5 C 95 % 1014,6 hPa 5,2 l/m 4,7 km/h (1 Bft) NW 0,00 h 64 W/m 15,7 C 16,1 C 10,5 km/h (2 Bft)
25.06.2016 12:00 17,5 C 94 % 1013,3 hPa 0,0 l/m 6,2 km/h (2 Bft) N-NW 0,00 h 144 W/m 16,5 C 17,3 C 14,0 km/h (3 Bft)
25.06.2016 13:00 18,0 C 91 % 1012,9 hPa 0,0 l/m 6,1 km/h (2 Bft) N-NW 0,00 h 92 W/m 16,5 C 17,8 C 14,0 km/h (3 Bft)
25.06.2016 14:00 17,7 C 93 % 1012,6 hPa 0,6 l/m 6,1 km/h (2 Bft) N-NO 0,00 h 74 W/m 16,5 C 17,5 C 13,8 km/h (3 Bft)
25.06.2016 15:00 17,2 C 93 % 1012,1 hPa 1,0 l/m 8,4 km/h (2 Bft) N 0,00 h 63 W/m 16,0 C 16,3 C 18,3 km/h (3 Bft)
25.06.2016 16:00 17,0 C 94 % 1011,4 hPa 0,2 l/m 8,6 km/h (2 Bft) N-NW 0,00 h 29 W/m 15,9 C 15,9 C 18,1 km/h (3 Bft)
25.06.2016 17:00 17,1 C 94 % 1010,7 hPa 0,4 l/m 8,5 km/h (2 Bft) N-NW 0,00 h 19 W/m 16,2 C 16,1 C 17,6 km/h (3 Bft)
25.06.2016 18:00 17,2 C 96 % 1010,3 hPa 1,6 l/m 7,6 km/h (2 Bft) N-NW 0,00 h 22 W/m 16,5 C 16,6 C 16,4 km/h (3 Bft)
25.06.2016 19:00 17,0 C 96 % 1010,3 hPa 2,4 l/m 11,0 km/h (2 Bft) N-NW 0,00 h 8 W/m 16,4 C 15,0 C 19,5 km/h (3 Bft)
25.06.2016 20:00 15,8 C 96 % 1010,3 hPa 0,4 l/m 11,9 km/h (2 Bft) W 0,00 h 6 W/m 15,2 C 13,3 C 22,7 km/h (4 Bft)
25.06.2016 21:00 14,8 C 95 % 1010,7 hPa 0,8 l/m 14,4 km/h (3 Bft) W-NW 0,00 h 0 W/m 14,0 C 11,1 C 28,2 km/h (5 Bft)
25.06.2016 22:00 14,4 C 96 % 1011,1 hPa 2,2 l/m 14,0 km/h (3 Bft) W 0,00 h 0 W/m 13,7 C 10,8 C 25,7 km/h (4 Bft)
25.06.2016 23:00 14,5 C 96 % 1011,4 hPa 3,0 l/m 12,3 km/h (2 Bft) NW 0,00 h 0 W/m 13,9 C 11,7 C 22,9 km/h (4 Bft)
26.06.2016 00:00 14,6 C 96 % 1011,7 hPa 0,6 l/m 10,1 km/h (2 Bft) NW 0,00 h 0 W/m 14,0 C 12,7 C 19,5 km/h (3 Bft)
26.06.2016 01:00 14,6 C 96 % 1011,6 hPa 0,2 l/m 8,7 km/h (2 Bft) W 0,00 h 0 W/m 13,9 C 13,3 C 17,1 km/h (3 Bft)
26.06.2016 02:00 14,5 C 94 % 1011,4 hPa 0,0 l/m 12,9 km/h (3 Bft) W 0,00 h 0 W/m 13,5 C 11,3 C 23,5 km/h (4 Bft)
26.06.2016 03:00 14,5 C 92 % 1011,7 hPa 0,0 l/m 12,4 km/h (2 Bft) W 0,00 h 0 W/m 13,3 C 11,6 C 22,0 km/h (4 Bft)
26.06.2016 04:00 14,9 C 91 % 1011,8 hPa 0,0 l/m 10,4 km/h (2 Bft) W 0,00 h 0 W/m 13,5 C 13,0 C 18,2 km/h (3 Bft)
26.06.2016 05:00 15,1 C 91 % 1011,9 hPa 0,0 l/m 8,3 km/h (2 Bft) W-SW 0,00 h 8 W/m 13,6 C 14,1 C 15,3 km/h (3 Bft)
26.06.2016 06:00 15,0 C 92 % 1012,1 hPa 0,0 l/m 9,9 km/h (2 Bft) SW 0,00 h 37 W/m 13,7 C 13,3 C 16,2 km/h (3 Bft)
26.06.2016 07:00 15,0 C 92 % 1012,5 hPa 0,0 l/m 13,6 km/h (3 Bft) SW 0,00 h 49 W/m 13,8 C 11,8 C 21,1 km/h (4 Bft)
26.06.2016 08:00 15,2 C 89 % 1012,7 hPa 0,0 l/m 15,0 km/h (3 Bft) SW 0,00 h 67 W/m 13,4 C 11,4 C 24,0 km/h (4 Bft)
26.06.2016 09:00 15,7 C 87 % 1013,2 hPa 0,0 l/m 14,9 km/h (3 Bft) SW 0,00 h 132 W/m 13,5 C 12,1 C 23,2 km/h (4 Bft)
26.06.2016 10:00 16,6 C 82 % 1013,5 hPa 0,0 l/m 14,3 km/h (3 Bft) SW 0,00 h 147 W/m 13,6 C 13,4 C 22,4 km/h (4 Bft)
26.06.2016 11:00 17,4 C 77 % 1013,8 hPa 0,0 l/m 14,3 km/h (3 Bft) S-SW 0,25 h 324 W/m 13,3 C 14,3 C 22,5 km/h (4 Bft)
26.06.2016 12:00 17,9 C 74 % 1013,9 hPa 0,0 l/m 13,9 km/h (3 Bft) SW 0,15 h 309 W/m 13,2 C 15,1 C 22,0 km/h (4 Bft)
26.06.2016 13:00 19,1 C 68 % 1013,7 hPa 0,0 l/m 14,7 km/h (3 Bft) S-SW 0,50 h 563 W/m 13,1 C 16,3 C 23,5 km/h (4 Bft)
26.06.2016 14:00 19,9 C 65 % 1013,7 hPa 0,0 l/m 15,9 km/h (3 Bft) W-SW 0,85 h 814 W/m 13,0 C 16,9 C 25,5 km/h (4 Bft)
26.06.2016 15:00 19,0 C 66 % 1014,1 hPa 0,0 l/m 13,9 km/h (3 Bft) SW 0,20 h 284 W/m 12,6 C 16,4 C 24,0 km/h (4 Bft)
26.06.2016 16:00 17,8 C 70 % 1014,4 hPa 0,0 l/m 11,7 km/h (2 Bft) W-SW 0,00 h 169 W/m 12,2 C 15,7 C 22,1 km/h (4 Bft)
26.06.2016 17:00 17,3 C 74 % 1014,4 hPa 0,0 l/m 9,9 km/h (2 Bft) SW 0,40 h 321 W/m 12,5 C 15,8 C 17,9 km/h (3 Bft)
26.06.2016 18:00 17,4 C 74 % 1014,0 hPa 0,0 l/m 9,4 km/h (2 Bft) SW 0,25 h 225 W/m 12,7 C 16,0 C 15,5 km/h (3 Bft)
26.06.2016 19:00 18,0 C 70 % 1014,0 hPa 0,0 l/m 10,3 km/h (2 Bft) SW 0,95 h 262 W/m 12,4 C 16,4 C 17,3 km/h (3 Bft)
26.06.2016 20:00 16,4 C 79 % 1014,0 hPa 0,0 l/m 6,2 km/h (2 Bft) SW 0,00 h 19 W/m 12,8 C 16,0 C 10,6 km/h (2 Bft)
26.06.2016 21:00 15,5 C 80 % 1014,2 hPa 0,0 l/m 2,7 km/h (1 Bft) SW 0,00 h 10 W/m 12,1 C 15,5 C 4,9 km/h (1 Bft)
26.06.2016 22:00 15,0 C 85 % 1014,6 hPa 0,0 l/m 2,2 km/h (1 Bft) SW 0,00 h 0 W/m 12,4 C 15,0 C 5,1 km/h (1 Bft)
26.06.2016 23:00 14,8 C 88 % 1014,8 hPa 0,0 l/m 4,1 km/h (1 Bft) SW 0,00 h 0 W/m 12,9 C 14,7 C 7,6 km/h (2 Bft)
Min-Datum _ 20.06.16 23.06.16 25.06.16 - 20.06.16 - - - 20.06.16 20.06.16 22.06.16
_ Min-Zeit 03:42 13:21 18:36 - 00:09 - - - 00:57 04:00 21:39
Minimum _ 9,7 C 56 % 1010,1 hPa - 0,0 km/h (0 Bft) - - - 7,9 C 8,4 C 0,0 km/h (0 Bft)
Max-Datum _ 23.06.16 21.06.16 22.06.16 23.06.16 20.06.16 - 20.06.16 23.06.16 24.06.16 23.06.16 23.06.16
_ Max-Zeit 13:24 00:33 22:09 20:15 12:45 - 10:51 13:42 14:54 13:24 23:30
Maximum _ 30,0 C 97 % 1021,8 hPa 10,6 l/m 20,3 km/h
S (4 Bft)
- 0,05 h 1044 W/m 21,6 C 29,9 C 54,7 km/h
N (7 Bft)
Durchschnitt _ 18,4 C 84 % 1016,0 hPa #58,0 l/m 7,0 km/h (2 Bft) SW #20:03 h 180 W/m 15,6 C 17,6 C 13,5 km/h (3 Bft)
2016 Cux-Wetter.de -Die Nutzung der Wetterdaten nur mit ausdrcklicher Genehmigung